Le Ponant — FGZZ — position and weather

sailwx.info

Track history (hours):
 
Tides and Currents Weather Stations Pressure Air Temp Water Temp Dewpoint Dewpoint Depression Visibility Wind Speed Wind Dir Waves Ship Positions

Le Ponant

Operator: Compangy des Iles du Ponant

Last reported at 2019-Jun-16 19:56 UTC. Time now 2019-Jun-17 19:15 UTC.
Position N 40°36' E 014°35'.

Length 84 m; draft 4.2 m.

Type: Passenger vessel. MMSI: 227186000.

Date/timePositionNaut miles runAvg speedWind from/ knotsBaromVisibWave heightAir tempDewpointWater temp
2019-Jun-16 19:56N 40°36' E 014°35'4 8.9
2019-Jun-16 19:30N 40°35' E 014°31'4 9.0
2019-Jun-16 19:00N 40°33' E 014°25'5 9.8
2019-Jun-16 18:30N 40°32' E 014°19'5 9.6
2019-Jun-16 18:00N 40°31' E 014°13'510.1
2019-Jun-16 17:30N 40°32' E 014°06'510.3
2019-Jun-16 17:00N 40°34' E 013°60'510.3
2019-Jun-16 16:30N 40°35' E 013°53'510.3
2019-Jun-16 16:00N 40°37' E 013°47'510.2
2019-Jun-16 15:30N 40°39' E 013°41'510.2
2019-Jun-16 14:58N 40°41' E 013°34'7 9.8
2019-Jun-16 14:16N 40°44' E 013°25'3 9.8
2019-Jun-16 13:58N 40°45' E 013°22'15 9.8
2019-Jun-16 12:24N 40°51' E 013°03'162 4.2
2019-Jun-14 22:12N 41°51' E 009°43'2 7.2
2019-Jun-14 21:59N 41°52' E 009°43'4 8.9
2019-Jun-14 21:30N 41°56' E 009°45'40 9.3
2019-Jun-14 17:14N 42°35' E 009°58'3 9.7
2019-Jun-14 16:57N 42°38' E 009°59'12 8.6
2019-Jun-14 15:32N 42°50' E 010°04'0 6.3
2019-Jun-14 15:29N 42°50' E 010°04'4 8.7
2019-Jun-14 15:00N 42°51' E 010°09'9 9.5
2019-Jun-14 14:06N 42°50' E 010°21'1 0.1
2019-Jun-14 06:38N 42°49' E 010°20'0 0.1
2019-Jun-14 06:26N 42°49' E 010°20'1 2.4
2019-Jun-14 06:00N 42°49' E 010°21'5 8.6
2019-Jun-14 05:27N 42°52' E 010°16'4 9.6
2019-Jun-14 05:00N 42°55' E 010°11'5 9.8
2019-Jun-14 04:30N 42°59' E 010°07'5 9.9
2019-Jun-14 04:00N 43°02' E 010°02'5 9.6
2019-Jun-14 03:30N 43°06' E 009°57'5 9.6
2019-Jun-14 03:00N 43°09' E 009°52'5 9.3
2019-Jun-14 02:30N 43°11' E 009°46'5 9.0
2019-Jun-14 02:00N 43°12' E 009°41'4 8.8
2019-Jun-14 01:30N 43°13' E 009°35'4 9.0
2019-Jun-14 01:00N 43°15' E 009°29'5 9.6
2019-Jun-14 00:30N 43°16' E 009°23'5 9.4
2019-Jun-14 00:00N 43°17' E 009°16'510.1
2019-Jun-13 23:30N 43°19' E 009°10'510.3
2019-Jun-13 23:00N 43°20' E 009°03'611.0
2019-Jun-13 22:30N 43°21' E 008°55'611.2
2019-Jun-13 22:00N 43°23' E 008°48'510.8
2019-Jun-13 21:30N 43°24' E 008°41'510.5
2019-Jun-13 21:01N 43°25' E 008°34'510.6
2019-Jun-13 20:30N 43°26' E 008°27'510.2
2019-Jun-13 20:00N 43°28' E 008°20'5 9.4
2019-Jun-13 19:30N 43°28' E 008°13'510.4
2019-Jun-13 19:00N 43°30' E 008°07'510.0
2019-Jun-13 18:30N 43°32' E 008°00'5 9.7
2019-Jun-13 18:00N 43°33' E 007°54'5 9.7
2019-Jun-13 17:30N 43°34' E 007°47'5 9.3
2019-Jun-13 17:00N 43°35' E 007°41'5 9.4
2019-Jun-13 16:30N 43°37' E 007°35'5 9.5
2019-Jun-13 16:00N 43°38' E 007°29'5 9.5
2019-Jun-13 15:30N 43°39' E 007°22'4 8.1
2019-Jun-13 15:00N 43°41' E 007°17'1 1.1
2019-Jun-13 14:29N 43°42' E 007°17'0 0.0
2019-Jun-13 13:56N 43°42' E 007°17'0 0.0
2019-Jun-13 13:28N 43°42' E 007°17'0 0.0
2019-Jun-13 12:58N 43°42' E 007°17'0 0.0
2019-Jun-13 12:28N 43°42' E 007°17'0 0.0
2019-Jun-13 12:00N 43°42' E 007°17'0 0.0
2019-Jun-13 11:30N 43°42' E 007°17'0 0.0
2019-Jun-13 10:59N 43°42' E 007°17'0 0.0
2019-Jun-13 10:28N 43°42' E 007°17'0 0.0
2019-Jun-13 10:00N 43°42' E 007°17'0 0.0
2019-Jun-13 09:28N 43°42' E 007°17'0 0.0
2019-Jun-13 09:00N 43°42' E 007°17'0 0.0
2019-Jun-13 08:29N 43°42' E 007°17'0 0.0
2019-Jun-13 07:56N 43°42' E 007°17'0 0.0
2019-Jun-13 07:29N 43°42' E 007°17'0 0.0
2019-Jun-13 07:00N 43°42' E 007°17'1 1.9
2019-Jun-13 06:31N 43°41' E 007°17'5 9.6
2019-Jun-13 06:00N 43°39' E 007°23'510.3
2019-Jun-13 05:30N 43°37' E 007°30'510.4
2019-Jun-13 05:00N 43°36' E 007°37'510.6
2019-Jun-13 04:30N 43°35' E 007°44'510.2
2019-Jun-13 04:00N 43°34' E 007°51'510.0
2019-Jun-13 03:30N 43°33' E 007°58'510.3
2019-Jun-13 03:00N 43°32' E 008°05'510.1
2019-Jun-13 02:30N 43°30' E 008°11'510.0
2019-Jun-13 02:00N 43°29' E 008°18'5 9.7
2019-Jun-13 01:30N 43°27' E 008°24'5 9.9
2019-Jun-13 01:00N 43°26' E 008°31'5 9.9
2019-Jun-13 00:30N 43°25' E 008°38'5 9.8
2019-Jun-13 00:00N 43°24' E 008°44'5 9.6
2019-Jun-12 23:30N 43°22' E 008°50'5 9.8
2019-Jun-12 23:00N 43°21' E 008°57'510.0
2019-Jun-12 22:30N 43°20' E 009°04'5 9.8
2019-Jun-12 22:00N 43°18' E 009°10'5 9.7
2019-Jun-12 21:30N 43°17' E 009°16'4 8.9
2019-Jun-12 21:00N 43°16' E 009°22'5 9.2
2019-Jun-12 20:30N 43°13' E 009°28'5 9.2
2019-Jun-12 20:00N 43°11' E 009°33'4 7.9
2019-Jun-12 19:30N 43°09' E 009°38'4 8.1
2019-Jun-12 19:00N 43°10' E 009°44'4 8.6
2019-Jun-12 18:30N 43°10' E 009°50'4 8.3
2019-Jun-12 18:00N 43°10' E 009°55'4 8.4
2019-Jun-12 17:30N 43°10' E 010°01'4 8.6
2019-Jun-12 17:00N 43°09' E 010°07'4 7.2
2019-Jun-12 16:30N 43°08' E 010°11'4 8.7
2019-Jun-12 16:00N 43°04' E 010°14'5 9.0
2019-Jun-12 15:29N 42°59' E 010°16'5 8.9
2019-Jun-12 14:58N 42°55' E 010°18'7 8.6
2019-Jun-12 14:10N 42°48' E 010°20'0 0.8
2019-Jun-12 13:55N 42°48' E 010°20'0 0.0
2019-Jun-12 13:16N 42°48' E 010°20'1 2.2
2019-Jun-12 12:57N 42°49' E 010°20'0 0.1
2019-Jun-12 12:28N 42°49' E 010°20'0 0.0
2019-Jun-12 11:16N 42°49' E 010°20'0 0.0
2019-Jun-12 07:41N 42°49' E 010°20'0 0.0
2019-Jun-12 07:29N 42°49' E 010°20'3 1.1
2019-Jun-12 04:28N 42°52' E 010°20'5 7.7
2019-Jun-12 03:53N 42°52' E 010°14'3 7.6
2019-Jun-12 03:30N 42°52' E 010°10'20 9.0
2019-Jun-12 01:16N 42°36' E 009°53'310.2
2019-Jun-12 01:00N 42°33' E 009°52'610.3
2019-Jun-12 00:24N 42°27' E 009°53'410.0
2019-Jun-12 00:00N 42°23' E 009°52'24 9.8
2019-Jun-11 21:31N 41°59' E 009°45'1 9.8
2019-Jun-11 21:27N 41°59' E 009°45'44 4.3
2019-Jun-11 11:14N 41°23' E 009°09'0 0.0
2019-Jun-11 10:55N 41°23' E 009°09'179 5.9
2019-Jun-10 04:23N 40°51' E 013°03'11 7.4
2019-Jun-10 02:51N 40°45' E 013°16'3 8.1
2019-Jun-10 02:29N 40°45' E 013°19'4 7.9
2019-Jun-10 02:00N 40°43' E 013°24'4 7.5
2019-Jun-10 01:30N 40°42' E 013°29'3 4.4
2019-Jun-10 00:48N 40°43' E 013°25'2 7.4
2019-Jun-10 00:30N 40°44' E 013°22'1 1.5
2019-Jun-09 23:50N 40°44' E 013°21'3 7.6
2019-Jun-09 23:29N 40°43' E 013°24'4 7.6
2019-Jun-09 23:00N 40°42' E 013°29'8 7.7
2019-Jun-09 22:00N 40°40' E 013°39'4 7.6
2019-Jun-09 21:30N 40°39' E 013°43'4 7.7
2019-Jun-09 21:00N 40°37' E 013°48'4 7.6
2019-Jun-09 20:30N 40°36' E 013°53'4 7.5
2019-Jun-09 20:00N 40°35' E 013°57'4 7.4
2019-Jun-09 19:30N 40°33' E 014°02'4 7.4
2019-Jun-09 19:00N 40°32' E 014°06'4 7.1
2019-Jun-09 18:26N 40°30' E 014°11'3 7.2
2019-Jun-09 17:59N 40°31' E 014°15'3 7.2
2019-Jun-09 17:30N 40°31' E 014°20'3 6.7
2019-Jun-09 17:00N 40°32' E 014°24'4 7.5
2019-Jun-09 16:30N 40°35' E 014°28'3 5.6
2019-Jun-09 16:00N 40°37' E 014°30'3 6.2
2019-Jun-09 15:29N 40°36' E 014°34'2 0.2
2019-Jun-09 06:44N 40°36' E 014°37'2 9.9
2019-Jun-09 06:30N 40°34' E 014°37'610.1
2019-Jun-09 05:57N 40°28' E 014°37'510.1
2019-Jun-09 05:30N 40°24' E 014°38'510.2
2019-Jun-09 05:00N 40°19' E 014°39'95 8.4
2019-Jun-08 17:45N 38°48' E 015°15'2 7.7
2019-Jun-08 17:30N 38°46' E 015°14'0 0.9
2019-Jun-08 17:00N 38°46' E 015°13'1 1.8
2019-Jun-08 16:26N 38°46' E 015°12'1 1.2
2019-Jun-08 16:00N 38°46' E 015°11'1 1.0
2019-Jun-08 15:30N 38°46' E 015°11'1 1.7
2019-Jun-08 15:00N 38°45' E 015°12'1 1.5
2019-Jun-08 14:30N 38°46' E 015°12'3 6.2
2019-Jun-08 14:00N 38°44' E 015°09'4 7.3
2019-Jun-08 13:30N 38°40' E 015°09'5 9.1
2019-Jun-08 13:00N 38°36' E 015°06'5 9.5
2019-Jun-08 12:30N 38°32' E 015°03'5 9.3
2019-Jun-08 12:00N 38°28' E 014°59'1 1.4
2019-Jun-08 11:19N 38°28' E 014°58'0 0.0
2019-Jun-08 10:41N 38°28' E 014°58'0 0.0
2019-Jun-08 10:14N 38°28' E 014°58'0 0.0
2019-Jun-08 09:54N 38°28' E 014°58'0 0.0
2019-Jun-08 09:19N 38°28' E 014°58'0 0.0
2019-Jun-08 08:55N 38°28' E 014°58'0 0.1
2019-Jun-08 08:29N 38°28' E 014°58'0 0.0
2019-Jun-08 07:38N 38°28' E 014°58'0 0.0
2019-Jun-08 07:18N 38°28' E 014°58'0 0.0
2019-Jun-08 05:57N 38°28' E 014°58'0 0.0
2019-Jun-08 05:25N 38°28' E 014°58'1 2.0
2019-Jun-08 05:00N 38°28' E 014°59'3 6.1
2019-Jun-08 04:30N 38°29' E 015°02'3 6.8
2019-Jun-08 04:00N 38°27' E 015°06'4 7.9
2019-Jun-08 03:30N 38°26' E 015°10'4 8.0
2019-Jun-08 03:01N 38°24' E 015°15'2 5.0
2019-Jun-08 02:31N 38°23' E 015°18'4 7.6
2019-Jun-08 02:00N 38°26' E 015°14'4 7.6
2019-Jun-08 01:31N 38°28' E 015°11'4 7.6
2019-Jun-08 01:00N 38°31' E 015°07'1 1.6
2019-Jun-08 00:29N 38°31' E 015°07'4 7.9
2019-Jun-08 00:00N 38°30' E 015°12'4 8.0
2019-Jun-07 23:30N 38°28' E 015°16'4 7.9
2019-Jun-07 23:00N 38°26' E 015°21'4 7.7
2019-Jun-07 22:30N 38°25' E 015°26'4 7.7
2019-Jun-07 22:00N 38°23' E 015°30'4 7.4
2019-Jun-07 21:30N 38°21' E 015°34'4 7.6
2019-Jun-07 21:00N 38°19' E 015°38'4 6.9
2019-Jun-07 20:28N 38°16' E 015°42'4 9.3
2019-Jun-07 20:00N 38°14' E 015°37'5 9.7
2019-Jun-07 19:30N 38°09' E 015°37'4 8.5
2019-Jun-07 19:00N 38°05' E 015°35'4 8.3
2019-Jun-07 18:30N 38°01' E 015°33'4 6.9
2019-Jun-07 18:00N 37°59' E 015°30'4 7.8
2019-Jun-07 17:29N 37°56' E 015°26'4 7.6
2019-Jun-07 17:00N 37°54' E 015°22'  
Track history (hours):
 
Tides and Currents Weather Stations Pressure Air Temp Water Temp Dewpoint Dewpoint Depression Visibility Wind Speed Wind Dir Waves Ship Positions

Le Ponant

Operator: Compangy des Iles du Ponant

Last reported at 2019-Jun-16 19:56 UTC. Time now 2019-Jun-17 19:15 UTC.
Position N 40°36' E 014°35'.

Length 84 m; draft 4.2 m.

Type: Passenger vessel. MMSI: 227186000.

Date/timePositionNaut miles runAvg speedWind from/ knotsBaromVisibWave heightAir tempDewpointWater temp
2019-Jun-16 19:56N 40°36' E 014°35'4 8.9
2019-Jun-16 19:30N 40°35' E 014°31'4 9.0
2019-Jun-16 19:00N 40°33' E 014°25'5 9.8
2019-Jun-16 18:30N 40°32' E 014°19'5 9.6
2019-Jun-16 18:00N 40°31' E 014°13'510.1
2019-Jun-16 17:30N 40°32' E 014°06'510.3
2019-Jun-16 17:00N 40°34' E 013°60'510.3
2019-Jun-16 16:30N 40°35' E 013°53'510.3
2019-Jun-16 16:00N 40°37' E 013°47'510.2
2019-Jun-16 15:30N 40°39' E 013°41'510.2
2019-Jun-16 14:58N 40°41' E 013°34'7 9.8
2019-Jun-16 14:16N 40°44' E 013°25'3 9.8
2019-Jun-16 13:58N 40°45' E 013°22'15 9.8
2019-Jun-16 12:24N 40°51' E 013°03'162 4.2
2019-Jun-14 22:12N 41°51' E 009°43'2 7.2
2019-Jun-14 21:59N 41°52' E 009°43'4 8.9
2019-Jun-14 21:30N 41°56' E 009°45'40 9.3
2019-Jun-14 17:14N 42°35' E 009°58'3 9.7
2019-Jun-14 16:57N 42°38' E 009°59'12 8.6
2019-Jun-14 15:32N 42°50' E 010°04'0 6.3
2019-Jun-14 15:29N 42°50' E 010°04'4 8.7
2019-Jun-14 15:00N 42°51' E 010°09'9 9.5
2019-Jun-14 14:06N 42°50' E 010°21'1 0.1
2019-Jun-14 06:38N 42°49' E 010°20'0 0.1
2019-Jun-14 06:26N 42°49' E 010°20'1 2.4
2019-Jun-14 06:00N 42°49' E 010°21'5 8.6
2019-Jun-14 05:27N 42°52' E 010°16'4 9.6
2019-Jun-14 05:00N 42°55' E 010°11'5 9.8
2019-Jun-14 04:30N 42°59' E 010°07'5 9.9
2019-Jun-14 04:00N 43°02' E 010°02'5 9.6
2019-Jun-14 03:30N 43°06' E 009°57'5 9.6
2019-Jun-14 03:00N 43°09' E 009°52'5 9.3
2019-Jun-14 02:30N 43°11' E 009°46'5 9.0
2019-Jun-14 02:00N 43°12' E 009°41'4 8.8
2019-Jun-14 01:30N 43°13' E 009°35'4 9.0
2019-Jun-14 01:00N 43°15' E 009°29'5 9.6
2019-Jun-14 00:30N 43°16' E 009°23'5 9.4
2019-Jun-14 00:00N 43°17' E 009°16'510.1
2019-Jun-13 23:30N 43°19' E 009°10'510.3
2019-Jun-13 23:00N 43°20' E 009°03'611.0
2019-Jun-13 22:30N 43°21' E 008°55'611.2
2019-Jun-13 22:00N 43°23' E 008°48'510.8
2019-Jun-13 21:30N 43°24' E 008°41'510.5
2019-Jun-13 21:01N 43°25' E 008°34'510.6
2019-Jun-13 20:30N 43°26' E 008°27'510.2
2019-Jun-13 20:00N 43°28' E 008°20'5 9.4
2019-Jun-13 19:30N 43°28' E 008°13'510.4
2019-Jun-13 19:00N 43°30' E 008°07'510.0
2019-Jun-13 18:30N 43°32' E 008°00'5 9.7
2019-Jun-13 18:00N 43°33' E 007°54'5 9.7
2019-Jun-13 17:30N 43°34' E 007°47'5 9.3
2019-Jun-13 17:00N 43°35' E 007°41'5 9.4
2019-Jun-13 16:30N 43°37' E 007°35'5 9.5
2019-Jun-13 16:00N 43°38' E 007°29'5 9.5
2019-Jun-13 15:30N 43°39' E 007°22'4 8.1
2019-Jun-13 15:00N 43°41' E 007°17'1 1.1
2019-Jun-13 14:29N 43°42' E 007°17'0 0.0
2019-Jun-13 13:56N 43°42' E 007°17'0 0.0
2019-Jun-13 13:28N 43°42' E 007°17'0 0.0
2019-Jun-13 12:58N 43°42' E 007°17'0 0.0
2019-Jun-13 12:28N 43°42' E 007°17'0 0.0
2019-Jun-13 12:00N 43°42' E 007°17'0 0.0
2019-Jun-13 11:30N 43°42' E 007°17'0 0.0
2019-Jun-13 10:59N 43°42' E 007°17'0 0.0
2019-Jun-13 10:28N 43°42' E 007°17'0 0.0
2019-Jun-13 10:00N 43°42' E 007°17'0 0.0
2019-Jun-13 09:28N 43°42' E 007°17'0 0.0
2019-Jun-13 09:00N 43°42' E 007°17'0 0.0
2019-Jun-13 08:29N 43°42' E 007°17'0 0.0
2019-Jun-13 07:56N 43°42' E 007°17'0 0.0
2019-Jun-13 07:29N 43°42' E 007°17'0 0.0
2019-Jun-13 07:00N 43°42' E 007°17'1 1.9
2019-Jun-13 06:31N 43°41' E 007°17'5 9.6
2019-Jun-13 06:00N 43°39' E 007°23'510.3
2019-Jun-13 05:30N 43°37' E 007°30'510.4
2019-Jun-13 05:00N 43°36' E 007°37'510.6
2019-Jun-13 04:30N 43°35' E 007°44'510.2
2019-Jun-13 04:00N 43°34' E 007°51'510.0
2019-Jun-13 03:30N 43°33' E 007°58'510.3
2019-Jun-13 03:00N 43°32' E 008°05'510.1
2019-Jun-13 02:30N 43°30' E 008°11'510.0
2019-Jun-13 02:00N 43°29' E 008°18'5 9.7
2019-Jun-13 01:30N 43°27' E 008°24'5 9.9
2019-Jun-13 01:00N 43°26' E 008°31'5 9.9
2019-Jun-13 00:30N 43°25' E 008°38'5 9.8
2019-Jun-13 00:00N 43°24' E 008°44'5 9.6
2019-Jun-12 23:30N 43°22' E 008°50'5 9.8
2019-Jun-12 23:00N 43°21' E 008°57'510.0
2019-Jun-12 22:30N 43°20' E 009°04'5 9.8
2019-Jun-12 22:00N 43°18' E 009°10'5 9.7
2019-Jun-12 21:30N 43°17' E 009°16'4 8.9
2019-Jun-12 21:00N 43°16' E 009°22'5 9.2
2019-Jun-12 20:30N 43°13' E 009°28'5 9.2
2019-Jun-12 20:00N 43°11' E 009°33'4 7.9
2019-Jun-12 19:30N 43°09' E 009°38'4 8.1
2019-Jun-12 19:00N 43°10' E 009°44'4 8.6
2019-Jun-12 18:30N 43°10' E 009°50'4 8.3
2019-Jun-12 18:00N 43°10' E 009°55'4 8.4
2019-Jun-12 17:30N 43°10' E 010°01'4 8.6
2019-Jun-12 17:00N 43°09' E 010°07'4 7.2
2019-Jun-12 16:30N 43°08' E 010°11'4 8.7
2019-Jun-12 16:00N 43°04' E 010°14'5 9.0
2019-Jun-12 15:29N 42°59' E 010°16'5 8.9
2019-Jun-12 14:58N 42°55' E 010°18'7 8.6
2019-Jun-12 14:10N 42°48' E 010°20'0 0.8
2019-Jun-12 13:55N 42°48' E 010°20'0 0.0
2019-Jun-12 13:16N 42°48' E 010°20'1 2.2
2019-Jun-12 12:57N 42°49' E 010°20'0 0.1
2019-Jun-12 12:28N 42°49' E 010°20'0 0.0
2019-Jun-12 11:16N 42°49' E 010°20'0 0.0
2019-Jun-12 07:41N 42°49' E 010°20'0 0.0
2019-Jun-12 07:29N 42°49' E 010°20'3 1.1
2019-Jun-12 04:28N 42°52' E 010°20'5 7.7
2019-Jun-12 03:53N 42°52' E 010°14'3 7.6
2019-Jun-12 03:30N 42°52' E 010°10'20 9.0
2019-Jun-12 01:16N 42°36' E 009°53'310.2
2019-Jun-12 01:00N 42°33' E 009°52'610.3
2019-Jun-12 00:24N 42°27' E 009°53'410.0
2019-Jun-12 00:00N 42°23' E 009°52'24 9.8
2019-Jun-11 21:31N 41°59' E 009°45'1 9.8
2019-Jun-11 21:27N 41°59' E 009°45'44 4.3
2019-Jun-11 11:14N 41°23' E 009°09'0 0.0
2019-Jun-11 10:55N 41°23' E 009°09'179 5.9
2019-Jun-10 04:23N 40°51' E 013°03'11 7.4
2019-Jun-10 02:51N 40°45' E 013°16'3 8.1
2019-Jun-10 02:29N 40°45' E 013°19'4 7.9
2019-Jun-10 02:00N 40°43' E 013°24'4 7.5
2019-Jun-10 01:30N 40°42' E 013°29'3 4.4
2019-Jun-10 00:48N 40°43' E 013°25'2 7.4
2019-Jun-10 00:30N 40°44' E 013°22'1 1.5
2019-Jun-09 23:50N 40°44' E 013°21'3 7.6
2019-Jun-09 23:29N 40°43' E 013°24'4 7.6
2019-Jun-09 23:00N 40°42' E 013°29'8 7.7
2019-Jun-09 22:00N 40°40' E 013°39'4 7.6
2019-Jun-09 21:30N 40°39' E 013°43'4 7.7
2019-Jun-09 21:00N 40°37' E 013°48'4 7.6
2019-Jun-09 20:30N 40°36' E 013°53'4 7.5
2019-Jun-09 20:00N 40°35' E 013°57'4 7.4
2019-Jun-09 19:30N 40°33' E 014°02'4 7.4
2019-Jun-09 19:00N 40°32' E 014°06'4 7.1
2019-Jun-09 18:26N 40°30' E 014°11'3 7.2
2019-Jun-09 17:59N 40°31' E 014°15'3 7.2
2019-Jun-09 17:30N 40°31' E 014°20'3 6.7
2019-Jun-09 17:00N 40°32' E 014°24'4 7.5
2019-Jun-09 16:30N 40°35' E 014°28'3 5.6
2019-Jun-09 16:00N 40°37' E 014°30'3 6.2
2019-Jun-09 15:29N 40°36' E 014°34'2 0.2
2019-Jun-09 06:44N 40°36' E 014°37'2 9.9
2019-Jun-09 06:30N 40°34' E 014°37'610.1
2019-Jun-09 05:57N 40°28' E 014°37'510.1
2019-Jun-09 05:30N 40°24' E 014°38'510.2
2019-Jun-09 05:00N 40°19' E 014°39'95 8.4
2019-Jun-08 17:45N 38°48' E 015°15'2 7.7
2019-Jun-08 17:30N 38°46' E 015°14'0 0.9
2019-Jun-08 17:00N 38°46' E 015°13'1 1.8
2019-Jun-08 16:26N 38°46' E 015°12'1 1.2
2019-Jun-08 16:00N 38°46' E 015°11'1 1.0
2019-Jun-08 15:30N 38°46' E 015°11'1 1.7
2019-Jun-08 15:00N 38°45' E 015°12'1 1.5
2019-Jun-08 14:30N 38°46' E 015°12'3 6.2
2019-Jun-08 14:00N 38°44' E 015°09'4 7.3
2019-Jun-08 13:30N 38°40' E 015°09'5 9.1
2019-Jun-08 13:00N 38°36' E 015°06'5 9.5
2019-Jun-08 12:30N 38°32' E 015°03'5 9.3
2019-Jun-08 12:00N 38°28' E 014°59'1 1.4
2019-Jun-08 11:19N 38°28' E 014°58'0 0.0
2019-Jun-08 10:41N 38°28' E 014°58'0 0.0
2019-Jun-08 10:14N 38°28' E 014°58'0 0.0
2019-Jun-08 09:54N 38°28' E 014°58'0 0.0
2019-Jun-08 09:19N 38°28' E 014°58'0 0.0
2019-Jun-08 08:55N 38°28' E 014°58'0 0.1
2019-Jun-08 08:29N 38°28' E 014°58'0 0.0
2019-Jun-08 07:38N 38°28' E 014°58'0 0.0
2019-Jun-08 07:18N 38°28' E 014°58'0 0.0
2019-Jun-08 05:57N 38°28' E 014°58'0 0.0
2019-Jun-08 05:25N 38°28' E 014°58'1 2.0
2019-Jun-08 05:00N 38°28' E 014°59'3 6.1
2019-Jun-08 04:30N 38°29' E 015°02'3 6.8
2019-Jun-08 04:00N 38°27' E 015°06'4 7.9
2019-Jun-08 03:30N 38°26' E 015°10'4 8.0
2019-Jun-08 03:01N 38°24' E 015°15'2 5.0
2019-Jun-08 02:31N 38°23' E 015°18'4 7.6
2019-Jun-08 02:00N 38°26' E 015°14'4 7.6
2019-Jun-08 01:31N 38°28' E 015°11'4 7.6
2019-Jun-08 01:00N 38°31' E 015°07'1 1.6
2019-Jun-08 00:29N 38°31' E 015°07'4 7.9
2019-Jun-08 00:00N 38°30' E 015°12'4 8.0
2019-Jun-07 23:30N 38°28' E 015°16'4 7.9
2019-Jun-07 23:00N 38°26' E 015°21'4 7.7
2019-Jun-07 22:30N 38°25' E 015°26'4 7.7
2019-Jun-07 22:00N 38°23' E 015°30'4 7.4
2019-Jun-07 21:30N 38°21' E 015°34'4 7.6
2019-Jun-07 21:00N 38°19' E 015°38'4 6.9
2019-Jun-07 20:28N 38°16' E 015°42'4 9.3
2019-Jun-07 20:00N 38°14' E 015°37'5 9.7
2019-Jun-07 19:30N 38°09' E 015°37'4 8.5
2019-Jun-07 19:00N 38°05' E 015°35'4 8.3
2019-Jun-07 18:30N 38°01' E 015°33'4 6.9
2019-Jun-07 18:00N 37°59' E 015°30'4 7.8
2019-Jun-07 17:29N 37°56' E 015°26'4 7.6
2019-Jun-07 17:00N 37°54' E 015°22'  

Dump ship's entire track history